MFV weather

Accomack County Airport
Melfa, Virginia, United States

Public forecast

Using degrees Fahrenheit for public forecast. Weather courtesy of forecast.io.

Current aviation weather report (METAR) for Accomack County Airport

Retrieved 2020/01/26 07:15 UTC (26 minutes ago):

KMFV 260715Z AUTO 10SM SCT050 05/04 A2991 RMK AO2 T00510039

Closest aviation forecast (TAF) to Accomack County Airport

Closest forecast is Salisbury Ocean City Wicomico Regional Airport, 43.3 nm (80.2 km) NNE. Retrieved 2020/01/26 06:24 UTC (1 hour ago):

TAF KSBY 260522Z 2606/2706 30004KT P6SM OVC060 FM260700 30004KT P6SM OVC045 FM261700 28009KT P6SM SKC FM270500 VRB03KT P6SM SCT090